Share

Chinandega, Nicaragua

Chinandega (MNCH) Elev 174 ft | 12.64 °N, 87.14 °W | Change Station

Current weather conditions updated 11 hours ago

Partly Cloudy
Partly Cloudy
76 °F
Feels Like 76 °F
N
5
Wind Variable Wind from ENE
Gusts mph
Sunrise 5:33 AM
Sunset 6:01 PM
Moon Waning Gibbous

Today is forecast to be Cooler than yesterday.

Pressure 29.71 in
Visibility 6.2 miles
Clouds Few 2500 ft
Dew Point 68 °F
Humidity 76%
Rainfall 0.00 in
Snow Depth Not available.
UV 1 out of 16
Pollen Not available.
Air Quality Not available.
Flu Activity Not available.
METAR MNCH 182300Z 05004KT 9999 FEW025 36/15 Q1006

More Conditions Fewer Conditions

Pressure 29.71 in
Visibility 6.2 miles
Clouds Few 2500 ft
Dew Point 68 °F
Humidity 76%
Rainfall 0.00 in
Snow Depth Not available.
UV 1 out of 16
Pollen Not available.
Air Quality Not available.
Flu Activity Not available.
METAR MNCH 182300Z 05004KT 9999 FEW025 36/15 Q1006

More Conditions Fewer Conditions

10-Day Weather Forecast

Almanac

Astronomy

Apr. 19, 2014 Rise Set
Actual Time 5:33 AM CST 6:01 PM CST
Civil Twilight 5:12 AM CST 6:23 PM CST
Nautical Twilight 4:46 AM CST 6:48 PM CST
Astronomical Twilight 4:21 AM CST 7:14 PM CST
Moon 10:20 PM CST 9:14 AM CST
Length of Visible Light 13h 10m
Length of Day
12h 27m
Tomorrow will be 0m 39s longer.
Waning Gibbous, 81% of the Moon is Illuminated
Today
Waning Gibbous
Apr 22
Last Quarter
Apr 29
New
May 6
First Quarter
May 14
Full

Yesterday's Extremes

Country Highs Country Lows

Community

  • Bleeding Hearts
    Bleeding Hearts
  • Sunset Silhouettes
    Sunset Silhouettes
  • FL sunset Perico Isle
    FL sunset Perico Isle
  • Cloudy spring view
    Cloudy spring view
  • Old barn
    Old barn

WunderPhotos

Upload Photos

1,702,676 photos uploaded!

WunderBlogs® & News

Nearby

Snow Depth

Not available.

Coastal Water Temperatures

Place Temperature
No Stations Reporting

Earthquake Activity

City Distance Mag. Time & Date
No recent earthquake activity has been reported nearby.
Minimum magnitude displayed is 2.5.

Nearby Weather Stations

There are no personal weather stations in this area.

What do you think?

We're not finished. Please let us know what you like, what you don't like, and what you are still missing.